Time;durP1;ratioP1;P1;durP2;ratioP2;P2;SDS_P1;SDS_P2;PMS_P1;PMS_P2;Temp;Humidity;BMP_temperature;BMP_pressure;BME280_temperature;BME280_humidity;BME280_pressure;Samples;Min_cycle;Max_cycle;Signal;HPM_P1;HPM_P2
2023/05/08 00:00:49;;;;;;;3.63;2.57;;;14.70;99.90;;;15.49;100.00;98441.22;4921904;29;20820;-80
2023/05/08 00:03:17;;;;;;;7.70;2.90;;;14.80;99.90;;;15.48;100.00;98435.13;4923323;29;20995;-78
2023/05/08 00:05:47;;;;;;;3.50;2.93;;;14.80;99.90;;;15.49;100.00;98442.03;4925648;29;20470;-79
2023/05/08 00:08:16;;;;;;;3.50;2.50;;;14.80;99.90;;;15.51;100.00;98440.00;4923773;29;20553;-79
2023/05/08 00:10:45;;;;;;;3.77;2.43;;;14.70;99.90;;;15.50;100.00;98443.66;4923701;29;20482;-80
2023/05/08 00:13:13;;;;;;;3.97;2.83;;;14.80;99.90;;;15.50;100.00;98438.38;4925437;29;20553;-79
2023/05/08 00:15:42;;;;;;;6.67;2.70;;;14.80;99.90;;;15.51;100.00;98440.00;4925096;29;20462;-78
2023/05/08 00:18:11;;;;;;;4.30;2.43;;;14.80;99.90;;;15.51;100.00;98445.28;4925489;29;20701;-79
2023/05/08 00:20:40;;;;;;;7.97;3.00;;;14.80;99.90;;;15.52;100.00;98436.34;4924928;29;20490;-79
2023/05/08 00:23:10;;;;;;;4.63;2.83;;;14.80;99.90;;;15.53;100.00;98440.59;4922392;29;20514;-79
2023/05/08 00:25:39;;;;;;;6.77;2.60;;;14.80;99.90;;;15.52;100.00;98440.78;4921031;29;20530;-79
2023/05/08 00:28:08;;;;;;;7.30;2.67;;;14.80;99.90;;;15.52;100.00;98438.97;4922819;29;20494;-79
2023/05/08 00:30:37;;;;;;;3.10;2.30;;;14.80;99.90;;;15.51;100.00;98440.00;4921279;29;21434;-78
2023/05/08 00:33:05;;;;;;;2.40;2.20;;;14.80;99.90;;;15.52;100.00;98446.06;4921408;29;21001;-78
2023/05/08 00:35:34;;;;;;;6.77;2.80;;;14.80;99.90;;;15.51;100.00;98442.66;4920801;29;20487;-80
2023/05/08 00:38:03;;;;;;;6.30;2.77;;;14.80;99.90;;;15.49;100.00;98439.41;4922705;29;20498;-78
2023/05/08 00:40:33;;;;;;;5.50;3.13;;;14.80;99.90;;;15.51;100.00;98440.00;4921604;29;20558;-79
2023/05/08 00:43:03;;;;;;;4.30;2.80;;;14.80;99.90;;;15.52;100.00;98438.97;4920184;29;20521;-79
2023/05/08 00:45:37;;;;;;;3.40;2.80;;;14.80;99.90;;;15.53;100.00;98432.69;4922185;29;20517;-79
2023/05/08 00:48:07;;;;;;;12.73;3.10;;;14.80;99.90;;;15.53;100.00;98437.16;4921647;29;20475;-78
2023/05/08 00:50:36;;;;;;;7.10;2.43;;;14.80;99.90;;;15.53;100.00;98442.41;4921201;29;20506;-79
2023/05/08 00:53:06;;;;;;;8.00;3.10;;;14.80;99.90;;;15.51;100.00;98439.19;4919851;29;20466;-80
2023/05/08 00:55:36;;;;;;;4.00;2.77;;;14.80;99.90;;;15.51;100.00;98441.84;4920694;29;21014;-78
2023/05/08 00:58:06;;;;;;;3.67;2.60;;;14.80;99.90;;;15.50;100.00;98442.84;4922207;29;20841;-79
2023/05/08 01:00:37;;;;;;;8.30;3.07;;;14.80;99.90;;;15.45;100.00;98440.78;4920590;29;20605;-79
2023/05/08 01:03:07;;;;;;;19.37;2.60;;;14.80;99.90;;;15.45;100.00;98453.97;4920427;29;20462;-79
2023/05/08 01:05:36;;;;;;;3.47;2.70;;;14.80;99.90;;;15.42;100.00;98451.75;4923041;29;20546;-78
2023/05/08 01:08:05;;;;;;;5.93;2.60;;;14.70;99.90;;;15.44;100.00;98452.38;4926105;29;20470;-78
2023/05/08 01:10:46;;;;;;;3.37;2.60;;;14.80;99.90;;;15.46;100.00;98450.31;4922870;29;20470;-79
2023/05/08 01:13:30;;;;;;;4.17;3.17;;;14.80;99.90;;;15.47;100.00;98449.31;4924433;29;20561;-78
2023/05/08 01:16:14;;;;;;;6.10;3.37;;;14.70;99.90;;;15.48;100.00;98452.78;4926457;29;20864;-79
2023/05/08 01:18:53;;;;;;;7.03;3.97;;;14.80;99.90;;;15.50;100.00;98454.19;4924840;29;20512;-79
2023/05/08 01:21:34;;;;;;;8.70;3.90;;;14.80;99.90;;;15.50;100.00;98456.03;4927862;29;21209;-78
2023/05/08 01:25:02;;;;;;;6.03;3.80;;;14.80;99.90;;;15.50;100.00;98456.84;4927495;29;20983;-80
2023/05/08 01:28:13;;;;;;;21.73;4.77;;;14.70;99.90;;;15.52;100.00;98459.25;4926567;29;20469;-80
2023/05/08 01:31:08;;;;;;;4.00;3.60;;;14.80;99.90;;;15.52;100.00;98460.06;4927813;29;20889;-78
2023/05/08 01:33:47;;;;;;;6.30;3.63;;;14.80;99.90;;;15.53;100.00;98453.78;4927930;29;20896;-80
2023/05/08 01:36:26;;;;;;;3.63;3.27;;;14.80;99.90;;;15.55;100.00;98461.47;4926407;29;20477;-79
2023/05/08 01:39:17;;;;;;;5.20;3.43;;;14.80;99.90;;;15.55;100.00;98459.63;4922482;29;20593;-79
2023/05/08 01:41:57;;;;;;;4.43;3.20;;;14.80;99.90;;;15.56;100.00;98452.53;4924915;29;20509;-78
2023/05/08 01:44:35;;;;;;;4.87;3.70;;;14.80;99.90;;;15.56;100.00;98458.63;4923362;29;20524;-79
2023/05/08 01:47:09;;;;;;;7.00;3.73;;;14.80;99.90;;;15.53;100.00;98461.69;4925101;29;20541;-78
2023/05/08 01:49:46;;;;;;;8.37;3.10;;;14.80;99.90;;;15.53;100.00;98456.41;4923841;29;20485;-78
2023/05/08 01:52:22;;;;;;;6.60;4.33;;;14.80;99.90;;;15.54;100.00;98454.59;4921182;29;20564;-79
2023/05/08 01:54:59;;;;;;;3.20;2.90;;;14.80;99.90;;;15.53;100.00;98453.78;4924233;29;20474;-79
2023/05/08 01:57:33;;;;;;;4.53;3.37;;;14.80;99.90;;;15.51;100.00;98455.84;4924947;29;21045;-78
2023/05/08 02:00:06;;;;;;;5.30;3.37;;;14.80;99.90;;;15.49;100.00;98457.84;4924329;29;20767;-78
2023/05/08 02:02:36;;;;;;;9.93;3.57;;;14.80;99.90;;;15.46;100.00;98463.50;4924339;29;20479;-78
2023/05/08 02:05:09;;;;;;;8.53;4.00;;;14.80;99.90;;;15.46;100.00;98457.41;4924423;29;20485;-78
2023/05/08 02:07:41;;;;;;;4.50;4.10;;;14.80;99.90;;;15.44;100.00;98460.28;4922603;29;20989;-78
2023/05/08 02:10:12;;;;;;;4.23;3.83;;;14.80;99.90;;;15.42;100.00;98470.22;4923864;29;20505;-79
2023/05/08 02:12:43;;;;;;;4.27;3.87;;;14.70;99.90;;;15.44;100.00;98464.75;4923936;29;21033;-79
2023/05/08 02:15:15;;;;;;;5.40;3.90;;;14.70;99.90;;;15.40;100.00;98464.34;4922073;29;20889;-78
2023/05/08 02:17:48;;;;;;;3.90;3.57;;;14.70;99.90;;;15.37;100.00;98464.75;4920352;29;20553;-78
2023/05/08 02:20:21;;;;;;;4.60;4.07;;;14.70;99.90;;;15.35;100.00;98465.97;4924228;29;22189;-78
2023/05/08 02:22:51;;;;;;;6.40;3.43;;;14.70;99.90;;;15.33;100.00;98468.81;4927515;29;20891;-79
2023/05/08 02:25:21;;;;;;;4.43;4.03;;;14.70;99.90;;;15.32;100.00;98472.47;4924927;29;20466;-78
2023/05/08 02:27:54;;;;;;;13.73;3.53;;;14.70;99.90;;;15.32;100.00;98474.28;4925241;29;20675;-78
2023/05/08 02:30:28;;;;;;;19.33;4.13;;;14.70;99.90;;;15.32;100.00;98472.47;4926870;29;20491;-78
2023/05/08 02:33:02;;;;;;;8.20;3.30;;;14.60;99.90;;;15.33;100.00;98471.47;4910529;29;20732;-78
2023/05/08 02:35:34;;;;;;;6.20;4.37;;;14.60;99.90;;;15.34;100.00;98465.16;4928480;29;20473;-79
2023/05/08 02:38:09;;;;;;;8.33;4.30;;;14.60;99.90;;;15.34;100.00;98467.78;4924058;29;20537;-78
2023/05/08 02:40:45;;;;;;;4.00;3.60;;;14.60;99.90;;;15.36;100.00;98468.41;4922163;29;20474;-79
2023/05/08 02:43:14;;;;;;;4.33;3.40;;;14.60;99.90;;;15.34;100.00;98465.16;4922788;29;20506;-79
2023/05/08 02:45:49;;;;;;;5.13;4.00;;;14.60;99.90;;;15.32;100.00;98464.56;4923638;29;20553;-78
2023/05/08 02:48:32;;;;;;;7.30;4.50;;;14.60;99.90;;;15.31;100.00;98470.03;4922539;29;20591;-79
2023/05/08 02:51:21;;;;;;;6.07;3.87;;;14.60;99.90;;;15.30;100.00;98478.97;4922388;29;21871;-79
2023/05/08 02:53:58;;;;;;;4.93;3.73;;;14.70;99.90;;;15.28;100.00;98471.25;4921537;29;20502;-79
2023/05/08 02:56:37;;;;;;;4.60;3.67;;;14.60;99.90;;;15.28;100.00;98465.97;4923370;29;20801;-78
2023/05/08 02:59:18;;;;;;;5.20;3.77;;;14.60;99.90;;;15.28;100.00;98471.25;4921412;29;20502;-79
2023/05/08 03:01:58;;;;;;;4.50;4.10;;;14.60;99.90;;;15.26;100.00;98473.28;4924247;29;20518;-79
2023/05/08 03:04:33;;;;;;;4.50;3.73;;;14.60;99.90;;;15.25;100.00;98469.03;4922990;29;20545;-79
2023/05/08 03:07:06;;;;;;;5.13;3.67;;;14.70;99.90;;;15.24;100.00;98475.31;4923771;29;20627;-78
2023/05/08 03:09:44;;;;;;;4.67;4.17;;;14.70;99.90;;;15.21;100.00;98475.72;4926446;29;21246;-79
2023/05/08 03:12:20;;;;;;;5.20;3.53;;;14.60;99.90;;;15.19;100.00;98483.03;4925086;29;20470;-78
2023/05/08 03:15:00;;;;;;;6.10;3.43;;;14.60;99.90;;;15.20;100.00;98479.41;4926697;29;20476;-78
2023/05/08 03:17:33;;;;;;;5.50;3.60;;;14.60;99.90;;;15.22;100.00;98485.25;4924992;29;20482;-79
2023/05/08 03:20:09;;;;;;;3.80;3.40;;;14.60;99.90;;;15.24;100.00;98485.84;4926542;29;20558;-78
2023/05/08 03:22:43;;;;;;;5.30;3.57;;;14.50;99.90;;;15.26;100.00;98483.03;4926481;29;20458;-78
2023/05/08 03:25:16;;;;;;;4.40;3.40;;;14.50;99.90;;;15.28;100.00;98483.63;4924592;29;20473;-81
2023/05/08 03:27:46;;;;;;;6.50;4.07;;;14.50;99.90;;;15.29;100.00;98477.34;4926467;29;20526;-79
2023/05/08 03:30:16;;;;;;;6.30;3.90;;;14.50;99.90;;;15.29;100.00;98480.78;4925339;29;20477;-79
2023/05/08 03:32:46;;;;;;;6.57;4.10;;;14.60;99.90;;;15.31;100.00;98485.84;4924968;29;20597;-78
2023/05/08 03:35:17;;;;;;;8.93;3.67;;;14.60;99.90;;;15.30;100.00;98476.31;4926775;29;21115;-80
2023/05/08 03:37:48;;;;;;;4.47;3.87;;;14.60;99.90;;;15.30;100.00;98484.22;4922476;29;20491;-78
2023/05/08 03:40:17;;;;;;;19.00;4.20;;;14.60;99.90;;;15.31;100.00;98481.38;4921793;29;20609;-79
2023/05/08 03:42:48;;;;;;;6.90;4.33;;;14.60;99.90;;;15.30;100.00;98481.59;4924270;29;20474;-78
2023/05/08 03:45:18;;;;;;;21.83;5.60;;;14.60;99.90;;;15.32;100.00;98477.72;4925248;29;20482;-79
2023/05/08 03:47:48;;;;;;;5.63;4.60;;;14.60;99.90;;;15.30;100.00;98487.69;4925475;29;21005;-79
2023/05/08 03:50:17;;;;;;;5.03;4.50;;;14.60;99.90;;;15.30;100.00;98485.06;4921161;29;20479;-79
2023/05/08 03:52:48;;;;;;;5.63;4.33;;;14.60;99.90;;;15.31;100.00;98486.66;4920825;29;20561;-79
2023/05/08 03:55:17;;;;;;;6.10;4.70;;;14.60;99.90;;;15.32;100.00;98482.19;4922813;29;20463;-79
2023/05/08 03:57:56;;;;;;;7.37;4.83;;;14.60;99.90;;;15.31;100.00;98480.56;4922395;29;20596;-79
2023/05/08 04:00:44;;;;;;;6.57;4.83;;;14.60;99.90;;;15.31;100.00;98486.66;4921291;29;20521;-81
2023/05/08 04:03:24;;;;;;;10.33;4.87;;;14.60;99.90;;;15.30;100.00;98481.59;4921561;29;21130;-79
2023/05/08 04:06:02;;;;;;;7.70;4.53;;;14.60;99.90;;;15.28;100.00;98480.97;4921488;29;20687;-79
2023/05/08 04:08:46;;;;;;;5.43;4.47;;;14.60;99.90;;;15.28;100.00;98481.78;4921145;29;20481;-78
2023/05/08 04:11:26;;;;;;;8.70;4.63;;;14.60;99.90;;;15.28;100.00;98480.97;4922124;29;20549;-79
2023/05/08 04:14:05;;;;;;;6.00;4.53;;;14.60;99.90;;;15.28;100.00;98492.34;4922997;29;20494;-79
2023/05/08 04:16:43;;;;;;;11.73;4.90;;;14.60;99.90;;;15.29;100.00;98488.69;4922493;29;20478;-78
2023/05/08 04:19:20;;;;;;;9.90;5.70;;;14.60;99.90;;;15.30;100.00;98484.22;4923379;29;20700;-79
2023/05/08 04:21:54;;;;;;;8.90;5.20;;;14.60;99.90;;;15.30;100.00;98490.31;4920070;29;20482;-79
2023/05/08 04:24:28;;;;;;;7.40;5.90;;;14.60;99.90;;;15.29;100.00;98487.88;4922389;29;20633;-78
2023/05/08 04:26:58;;;;;;;9.33;5.73;;;14.60;99.90;;;15.29;100.00;98491.31;4923308;29;20460;-78
2023/05/08 04:29:28;;;;;;;6.13;5.20;;;14.60;99.90;;;15.30;100.00;98489.50;4925120;29;20558;-78
2023/05/08 04:31:59;;;;;;;9.60;5.63;;;14.60;99.90;;;15.30;100.00;98495.59;4922358;29;20466;-79
2023/05/08 04:34:29;;;;;;;7.40;5.63;;;14.60;99.90;;;15.30;100.00;98492.97;4924626;29;20474;-79
2023/05/08 04:36:58;;;;;;;7.10;5.63;;;14.60;99.90;;;15.31;100.00;98493.75;4922745;29;20553;-78
2023/05/08 04:39:28;;;;;;;7.40;5.97;;;14.60;99.90;;;15.32;100.00;98496.19;4920245;29;20502;-79
2023/05/08 04:42:01;;;;;;;7.10;5.67;;;14.60;99.90;;;15.32;100.00;98501.44;4921358;29;20493;-79
2023/05/08 04:44:31;;;;;;;10.53;6.10;;;14.60;99.90;;;15.32;100.00;98496.19;4921302;29;20470;-79
2023/05/08 04:46:59;;;;;;;10.60;6.57;;;14.60;99.90;;;15.32;100.00;98504.09;4921432;29;20984;-79
2023/05/08 04:49:28;;;;;;;9.60;6.13;;;14.60;99.90;;;15.31;100.00;98502.47;4920950;29;20478;-80
2023/05/08 04:51:57;;;;;;;8.23;6.00;;;14.60;99.90;;;15.32;100.00;98506.72;4920160;29;20518;-79
2023/05/08 04:54:26;;;;;;;10.13;6.57;;;14.60;99.90;;;15.33;100.00;98510.16;4921485;29;20471;-79
2023/05/08 04:56:58;;;;;;;8.60;5.23;;;14.70;99.90;;;15.30;100.00;98511.41;4919303;29;20506;-79
2023/05/08 04:59:28;;;;;;;13.03;8.03;;;14.60;99.90;;;15.33;100.00;98508.34;4919045;29;20506;-78
2023/05/08 05:02:01;;;;;;;11.53;6.43;;;14.60;99.90;;;15.33;100.00;98505.72;4920319;29;20522;-81
2023/05/08 05:04:30;;;;;;;19.60;10.87;;;14.60;99.90;;;15.34;100.00;98512.59;4918893;29;20883;-80
2023/05/08 05:06:59;;;;;;;20.27;10.60;;;14.70;99.90;;;15.34;100.00;98512.59;4920569;29;20513;-78
2023/05/08 05:09:27;;;;;;;11.07;7.20;;;14.70;99.90;;;15.37;100.00;98512.19;4920208;29;21037;-78
2023/05/08 05:11:57;;;;;;;10.27;6.50;;;14.60;99.90;;;15.37;100.00;98512.19;4922252;29;20869;-78
2023/05/08 05:14:26;;;;;;;13.13;7.17;;;14.70;99.90;;;15.37;100.00;98512.19;4922491;29;20470;-77
2023/05/08 05:16:54;;;;;;;22.80;15.53;;;14.70;99.90;;;15.36;100.00;98518.47;4919880;29;20913;-78
2023/05/08 05:19:24;;;;;;;18.17;11.00;;;14.70;99.90;;;15.37;100.00;98522.75;4916217;29;20562;-79
2023/05/08 05:21:52;;;;;;;11.77;6.83;;;14.70;99.90;;;15.38;100.00;98516.44;4920622;29;20489;-79
2023/05/08 05:24:21;;;;;;;9.30;6.00;;;14.60;99.90;;;15.39;100.00;98525.97;4922883;29;20482;-79
2023/05/08 05:26:50;;;;;;;14.53;6.80;;;14.70;99.90;;;15.37;100.00;98528.00;4923901;29;20505;-78
2023/05/08 05:29:20;;;;;;;11.03;7.97;;;14.70;99.90;;;15.39;100.00;98525.97;4924869;29;21080;-78
2023/05/08 05:31:49;;;;;;;10.93;8.57;;;14.70;99.90;;;15.38;100.00;98532.25;4923433;29;20473;-78
2023/05/08 05:34:18;;;;;;;10.20;8.20;;;14.60;99.90;;;15.31;100.00;98523.53;4923776;29;20466;-78
2023/05/08 05:36:46;;;;;;;14.87;7.77;;;14.70;99.90;;;15.27;100.00;98526.81;4922384;29;20476;-78
2023/05/08 05:39:15;;;;;;;7.17;5.90;;;14.60;99.90;;;15.26;100.00;98531.25;4924554;29;20546;-79
2023/05/08 05:41:44;;;;;;;8.70;6.80;;;14.60;99.90;;;15.26;100.00;98536.53;4923266;29;20509;-79
2023/05/08 05:44:12;;;;;;;9.20;6.40;;;14.60;99.90;;;15.27;100.00;98547.88;4924380;29;20745;-79
2023/05/08 05:46:42;;;;;;;8.97;6.70;;;14.50;99.90;;;15.27;100.00;98538.13;4920405;29;20555;-78
2023/05/08 05:49:12;;;;;;;7.37;5.63;;;14.60;99.90;;;15.25;100.00;98539.38;4923333;29;20455;-79
2023/05/08 05:51:40;;;;;;;7.13;5.80;;;14.60;99.90;;;15.22;100.00;98535.31;4923416;29;20482;-79
2023/05/08 05:54:09;;;;;;;11.40;6.17;;;14.60;99.90;;;15.23;100.00;98542.22;4923952;29;20482;-79
2023/05/08 05:56:37;;;;;;;10.70;6.23;;;14.60;99.90;;;15.21;100.00;98541.59;4924882;29;20498;-78
2023/05/08 05:59:06;;;;;;;9.77;6.87;;;14.60;99.90;;;15.21;100.00;98544.22;4925089;29;20458;-79
2023/05/08 06:01:34;;;;;;;10.50;6.10;;;14.60;99.90;;;15.24;100.00;98537.75;4922649;29;20628;-78
2023/05/08 06:04:05;;;;;;;11.83;5.60;;;14.60;99.90;;;15.25;100.00;98534.91;4924206;29;20554;-79
2023/05/08 06:06:34;;;;;;;7.70;5.60;;;14.60;99.90;;;15.28;100.00;98534.50;4923024;29;20462;-79
2023/05/08 06:09:05;;;;;;;14.20;8.53;;;14.60;99.90;;;15.25;100.00;98539.38;4921567;29;20484;-77
2023/05/08 06:11:34;;;;;;;17.63;11.90;;;14.60;99.90;;;15.23;100.00;98536.13;4923568;29;20582;-79
2023/05/08 06:14:03;;;;;;;6.73;5.23;;;14.60;99.90;;;15.22;100.00;98543.22;4916795;29;20541;-79
2023/05/08 06:16:34;;;;;;;6.57;5.50;;;14.60;99.90;;;15.22;100.00;98545.84;4921718;29;21072;-79
2023/05/08 06:19:04;;;;;;;7.50;5.83;;;14.60;99.90;;;15.23;100.00;98557.22;4894071;29;20482;-80
2023/05/08 06:21:34;;;;;;;10.90;5.90;;;14.60;99.90;;;15.22;100.00;98548.50;4905492;29;21774;-79
2023/05/08 06:24:03;;;;;;;13.37;6.50;;;14.50;99.90;;;15.22;100.00;98556.41;4921146;29;20529;-80
2023/05/08 06:26:31;;;;;;;9.67;6.00;;;14.50;99.90;;;15.21;100.00;98562.66;4922472;29;20524;-79
2023/05/08 06:29:00;;;;;;;9.63;5.70;;;14.50;99.90;;;15.22;100.00;98561.66;4919673;29;20478;-79
2023/05/08 06:31:28;;;;;;;7.47;6.20;;;14.50;99.90;;;15.23;100.00;98562.47;4922785;29;20967;-79
2023/05/08 06:33:58;;;;;;;7.70;5.70;;;14.50;99.90;;;15.24;100.00;98553.56;4926051;29;20501;-79
2023/05/08 06:36:28;;;;;;;8.80;6.40;;;14.50;99.90;;;15.23;100.00;98552.75;4925191;29;20973;-79
2023/05/08 06:38:57;;;;;;;6.83;5.90;;;14.50;99.90;;;15.21;100.00;98554.78;4922662;29;20477;-78
2023/05/08 06:41:26;;;;;;;8.17;6.50;;;14.60;99.90;;;15.21;100.00;98554.78;4907502;29;20597;-79
2023/05/08 06:43:54;;;;;;;7.03;5.27;;;14.50;99.90;;;15.20;100.00;98547.91;4925640;29;20827;-78
2023/05/08 06:46:22;;;;;;;10.03;6.40;;;14.50;99.90;;;15.20;100.00;98558.44;4921732;29;20468;-79
2023/05/08 06:48:51;;;;;;;10.23;6.10;;;14.60;99.90;;;15.21;100.00;98556.59;4922869;29;21025;-78
2023/05/08 06:51:21;;;;;;;7.73;5.60;;;14.50;99.90;;;15.20;100.00;98574.25;4924081;29;21249;-79
2023/05/08 06:53:52;;;;;;;9.27;6.90;;;14.50;99.90;;;15.21;100.00;98575.03;4924559;29;20492;-78
2023/05/08 06:56:21;;;;;;;9.90;6.13;;;14.50;99.90;;;15.22;100.00;98568.75;4924086;29;20487;-81
2023/05/08 06:58:50;;;;;;;10.43;6.70;;;14.50;99.90;;;15.22;100.00;98574.84;4924405;29;20906;-78
2023/05/08 07:01:36;;;;;;;9.00;7.33;;;14.50;99.90;;;15.23;100.00;98580.94;4922283;29;21127;-79
2023/05/08 07:04:05;;;;;;;10.97;7.57;;;14.50;99.90;;;15.18;100.00;98571.00;4920699;29;20830;-79
2023/05/08 07:06:34;;;;;;;8.97;7.73;;;14.50;99.90;;;15.18;100.00;98576.25;4921465;29;20572;-79
2023/05/08 07:09:04;;;;;;;11.03;7.80;;;14.50;99.90;;;15.16;100.00;98573.03;4923672;29;20475;-79
2023/05/08 07:11:33;;;;;;;9.90;8.20;;;14.40;99.90;;;15.16;100.00;98573.03;4934651;28;20552;-79
2023/05/08 07:14:01;;;;;;;10.60;6.93;;;14.50;99.90;;;15.13;100.00;98568.94;4921323;29;20557;-79
2023/05/08 07:16:30;;;;;;;10.83;8.43;;;14.50;99.90;;;15.14;100.00;98569.75;4921130;29;20490;-79
2023/05/08 07:18:59;;;;;;;9.73;7.93;;;14.50;99.90;;;15.09;100.00;98573.03;4922480;29;20829;-79
2023/05/08 07:21:29;;;;;;;10.07;7.47;;;14.50;99.90;;;15.10;100.00;98576.44;4923025;29;20495;-80
2023/05/08 07:23:58;;;;;;;7.57;6.73;;;14.50;99.90;;;15.08;100.00;98567.94;4906429;29;20470;-79
2023/05/08 07:26:28;;;;;;;110.20;61.93;;;14.50;99.90;;;15.03;100.00;98568.53;4922290;29;20482;-79
2023/05/08 07:28:57;;;;;;;12.20;7.60;;;14.50;99.90;;;15.03;100.00;98562.47;4920601;29;20549;-79
2023/05/08 07:31:25;;;;;;;8.63;6.50;;;14.40;99.90;;;15.03;100.00;98565.09;4918032;29;20550;-79
2023/05/08 07:33:54;;;;;;;8.77;6.77;;;14.50;99.90;;;14.99;100.00;98564.69;4920916;29;20906;-80
2023/05/08 07:36:23;;;;;;;9.57;7.63;;;14.40;99.90;;;15.00;100.00;98579.50;4923002;29;20555;-79
2023/05/08 07:38:52;;;;;;;11.53;7.87;;;14.50;99.90;;;14.99;100.00;98582.34;4920881;29;20541;-79
2023/05/08 07:41:20;;;;;;;9.10;6.87;;;14.40;99.90;;;15.00;100.00;98581.31;4905715;29;20585;-79
2023/05/08 07:43:51;;;;;;;9.63;7.37;;;14.40;99.90;;;14.99;100.00;98583.13;4922432;29;20486;-79
2023/05/08 07:46:21;;;;;;;11.40;8.20;;;14.40;99.90;;;15.02;100.00;98582.75;4920767;29;20539;-80
2023/05/08 07:48:52;;;;;;;11.57;6.77;;;14.50;99.90;;;15.05;100.00;98586.81;4922957;29;20897;-80
2023/05/08 07:51:21;;;;;;;17.97;6.77;;;14.50;99.90;;;15.03;100.00;98594.06;4922093;29;20479;-79
2023/05/08 07:53:50;;;;;;;12.37;8.37;;;14.50;99.90;;;15.06;100.00;98588.44;4923160;29;20470;-80
2023/05/08 07:56:20;;;;;;;15.60;8.10;;;14.50;99.90;;;15.09;100.00;98593.28;4922395;29;20813;-79
2023/05/08 07:58:51;;;;;;;8.33;7.17;;;14.50;99.90;;;15.07;100.00;98590.84;4922173;29;20474;-79
2023/05/08 08:01:19;;;;;;;12.47;7.90;;;14.50;99.90;;;15.07;100.00;98588.22;4922353;29;20571;-80
2023/05/08 08:03:49;;;;;;;9.37;6.70;;;14.50;99.90;;;15.10;100.00;98587.81;4920839;29;20475;-80
2023/05/08 08:06:18;;;;;;;10.73;7.03;;;14.50;99.90;;;15.13;100.00;98588.44;4922417;29;20475;-79
2023/05/08 08:08:46;;;;;;;11.47;7.60;;;14.60;99.90;;;15.13;100.00;98591.06;4922574;29;20563;-79
2023/05/08 08:11:16;;;;;;;7.93;7.13;;;14.60;99.90;;;15.15;100.00;98600.38;4921366;29;20474;-79
2023/05/08 08:13:45;;;;;;;11.20;7.73;;;14.60;99.90;;;15.15;100.00;98589.84;4919764;29;21196;-79
2023/05/08 08:16:15;;;;;;;8.00;6.70;;;14.60;99.90;;;15.21;100.00;98596.94;4922307;29;21009;-79
2023/05/08 08:18:46;;;;;;;11.37;7.17;;;14.60;99.90;;;15.20;100.00;98597.97;4920718;29;20499;-79
2023/05/08 08:21:15;;;;;;;9.63;7.70;;;14.60;99.90;;;15.21;100.00;98606.66;4920203;29;21397;-79
2023/05/08 08:23:44;;;;;;;17.37;7.50;;;14.60;99.90;;;15.22;100.00;98610.91;4907387;29;20527;-79
2023/05/08 08:26:13;;;;;;;7.67;6.73;;;14.60;99.90;;;15.27;100.00;98605.84;4923445;29;20459;-78
2023/05/08 08:28:42;;;;;;;14.63;7.30;;;14.60;99.90;;;15.28;100.00;98608.28;4922303;29;20475;-79
2023/05/08 08:31:11;;;;;;;9.60;7.33;;;14.70;99.90;;;15.29;100.00;98606.47;4924850;29;20474;-79
2023/05/08 08:33:40;;;;;;;8.53;6.93;;;14.70;99.90;;;15.27;100.00;98619.81;4919238;29;20542;-79
2023/05/08 08:36:14;;;;;;;10.20;7.67;;;14.70;99.90;;;15.25;100.00;98613.97;4917496;29;21028;-79
2023/05/08 08:38:42;;;;;;;10.13;7.73;;;14.70;99.90;;;15.25;100.00;98608.69;4920627;29;20606;-79
2023/05/08 08:41:14;;;;;;;15.03;7.23;;;14.70;99.90;;;15.25;100.00;98611.31;4917342;29;21028;-79
2023/05/08 08:43:43;;;;;;;11.13;7.70;;;14.70;99.90;;;15.26;100.00;98618.22;4918395;29;20565;-79
2023/05/08 08:46:15;;;;;;;15.00;8.60;;;14.70;99.90;;;15.25;100.00;98619.22;4919818;29;20470;-79
2023/05/08 08:48:47;;;;;;;10.03;7.57;;;14.70;99.90;;;15.25;100.00;98613.97;4908405;29;20529;-79
2023/05/08 08:51:27;;;;;;;9.87;6.73;;;14.70;99.90;;;15.24;100.00;98619.44;4920265;29;20957;-80
2023/05/08 08:54:07;;;;;;;16.43;7.43;;;14.60;99.90;;;15.23;100.00;98621.25;4919880;29;20506;-79
2023/05/08 08:56:41;;;;;;;12.27;8.40;;;14.60;99.90;;;15.27;100.00;98616.41;4919750;29;20533;-80
2023/05/08 08:59:13;;;;;;;13.13;8.20;;;14.60;99.90;;;15.30;100.00;98616.00;4923253;29;20585;-79
2023/05/08 09:01:45;;;;;;;15.87;7.50;;;14.70;99.90;;;15.32;100.00;98624.50;4920845;29;20478;-79
2023/05/08 09:04:16;;;;;;;11.70;7.97;;;14.70;99.90;;;15.37;100.00;98620.25;4920873;29;20469;-79
2023/05/08 09:06:46;;;;;;;8.83;7.17;;;14.80;99.90;;;15.33;100.00;98629.56;4920030;29;20474;-80
2023/05/08 09:09:15;;;;;;;12.37;7.40;;;14.80;99.90;;;15.32;100.00;98619.22;4918145;29;20478;-79
2023/05/08 09:11:46;;;;;;;11.90;8.47;;;14.80;99.90;;;15.33;100.00;98626.94;4920403;29;20495;-79
2023/05/08 09:14:15;;;;;;;12.70;7.70;;;14.70;99.90;;;15.37;100.00;98622.06;4918791;29;20474;-79
2023/05/08 09:16:43;;;;;;;9.80;7.30;;;14.80;99.90;;;15.33;100.00;98626.94;4919883;29;20487;-79
2023/05/08 09:19:16;;;;;;;13.40;7.90;;;14.80;99.90;;;15.33;100.00;98629.56;4922010;29;20966;-79
2023/05/08 09:21:45;;;;;;;8.97;6.67;;;14.80;99.90;;;15.38;100.00;98632.41;4923111;29;20517;-79
2023/05/08 09:24:14;;;;;;;11.73;7.80;;;14.90;99.90;;;15.38;100.00;98629.75;4921913;29;20470;-81
2023/05/08 09:26:43;;;;;;;10.63;7.00;;;14.90;99.90;;;15.35;100.00;98627.53;4919519;29;20988;-78
2023/05/08 09:29:14;;;;;;;10.97;8.13;;;14.80;99.90;;;15.37;100.00;98638.69;4920413;29;20471;-79
2023/05/08 09:31:45;;;;;;;10.27;7.57;;;14.90;99.90;;;15.37;100.00;98632.63;4918606;29;20478;-79
2023/05/08 09:34:26;;;;;;;10.23;7.17;;;14.80;99.90;;;15.42;100.00;98638.06;4921350;29;20482;-79
2023/05/08 09:36:55;;;;;;;16.47;7.80;;;14.90;99.90;;;15.40;100.00;98627.75;4919033;29;20463;-79
2023/05/08 09:39:26;;;;;;;12.73;7.50;;;14.90;99.90;;;15.38;100.00;98634.22;4920866;29;20591;-79
2023/05/08 09:41:58;;;;;;;15.00;8.27;;;14.80;99.90;;;15.38;100.00;98635.03;4923514;29;20765;-79
2023/05/08 09:44:27;;;;;;;10.87;7.50;;;14.80;99.90;;;15.40;100.00;98638.28;4922558;29;20505;-79
2023/05/08 09:47:14;;;;;;;9.37;7.70;;;14.80;99.90;;;15.42;100.00;98630.97;4923988;29;20993;-78
2023/05/08 09:49:58;;;;;;;8.70;7.33;;;14.80;99.90;;;15.45;100.00;98632.38;4925626;29;20501;-79
2023/05/08 09:52:27;;;;;;;15.23;7.87;;;14.80;99.90;;;15.47;100.00;98633.84;4921874;29;20477;-79
2023/05/08 09:54:59;;;;;;;8.80;7.07;;;14.80;99.90;;;15.51;100.00;98629.81;4926615;29;20474;-79
2023/05/08 09:57:30;;;;;;;10.83;7.20;;;14.80;99.90;;;15.54;100.00;98633.84;4910770;29;20570;-80
2023/05/08 10:00:06;;;;;;;8.90;7.07;;;14.90;99.90;;;15.53;100.00;98633.03;4925835;29;20996;-78
2023/05/08 10:02:40;;;;;;;18.10;8.27;;;14.90;99.90;;;15.54;100.00;98632.03;4916982;29;20486;-79
2023/05/08 10:05:25;;;;;;;11.17;8.47;;;14.90;99.90;;;15.54;100.00;98639.94;4923599;29;21092;-79
2023/05/08 10:07:54;;;;;;;14.93;8.90;;;15.00;99.90;;;15.53;100.00;98638.31;4922137;29;20571;-79
2023/05/08 10:10:26;;;;;;;17.30;8.23;;;14.90;99.90;;;15.52;100.00;98641.97;4921393;29;20537;-80
2023/05/08 10:12:56;;;;;;;8.10;6.57;;;15.00;99.90;;;15.54;100.00;98639.94;4920573;29;20478;-79
2023/05/08 10:15:29;;;;;;;13.47;7.93;;;15.00;99.90;;;15.56;100.00;98637.09;4923292;29;20495;-79
2023/05/08 10:18:05;;;;;;;8.13;7.20;;;15.10;99.90;;;15.59;100.00;98636.69;4921822;29;20469;-79
2023/05/08 10:20:40;;;;;;;16.70;7.60;;;15.00;99.90;;;15.64;100.00;98638.72;4922626;29;20557;-80
2023/05/08 10:23:14;;;;;;;13.87;7.53;;;15.10;99.90;;;15.63;100.00;98637.06;4921354;29;20497;-80
2023/05/08 10:25:47;;;;;;;10.93;7.70;;;15.10;99.90;;;15.64;100.00;98638.72;4925160;29;20478;-79
2023/05/08 10:28:29;;;;;;;13.23;8.13;;;15.10;99.90;;;15.65;100.00;98635.06;4919599;29;20847;-79
2023/05/08 10:31:04;;;;;;;14.73;7.80;;;15.10;99.90;;;15.67;100.00;98638.28;4921752;29;20479;-78